Clarksdale Fletcher Field Air, MS

3:45 AM CST on November 15, 2019 (GMT -0600)
Fletcher

Weather History for KCKM - October, 2019

Change the Weather History Date:

Monday, October 21, 2019

  Actual Average (WUND) Record (WUND)
Temperature  
Mean Temperature 65 °F -  
Max Temperature 73 °F - - (-1)
Min Temperature 57 °F - - (-1)
Growing Degree Days 15 (Base 50)    
Moisture  
Dew Point 66 °F    
Average Humidity 100    
Maximum Humidity 100    
Minimum Humidity 94    
Precipitation  
Precipitation 0.58 in - - ()
Sea Level Pressure  
Sea Level Pressure 29.81 in    
Wind  
Wind Speed 11 mph ()    
Max Wind Speed 25 mph    
Max Gust Speed 33 mph    
Visibility 9.0 miles    
Events      
Averages and records for this station are not official NWS values.
T = Trace of Precipitation, MM = Missing Value Source: Averaged Metar Reports

Daily Weather History Graph

Daily Weather History Graph

Search for Another Location

Airport or City:

Astronomy

Oct. 21, 2019 Rise Set
Actual Time 7:12 AM CDT 6:20 PM CDT
Civil Twilight 6:46 AM CDT 6:46 PM CDT
Nautical Twilight 6:17 AM CDT 7:15 PM CDT
Astronomical Twilight 5:48 AM CDT 7:44 PM CDT
Moon No Moon Rise 2:21 PM CDT (10/21)
Length of Visible Light 11h 59m
Length of Day
11h 08m
Waning Gibbous, 48% of the Moon is Illuminated
Oct 21
Waning Gibbous
Oct 27
New
Nov 4
First Quarter
Nov 12
Full
Nov 19
Last Quarter

Hourly Weather History & Observations

Time (CDT) Temp. Dew Point Humidity Pressure Visibility Wind Dir Wind Speed Gust Speed Precip Events Conditions
12:15 AM 73.4 °F 73.4 °F 100% 29.77 in 9.0 mi SSE 12.7 mph - N/A   Unknown
12:35 AM 73.4 °F 73.4 °F 100% 29.75 in 10.0 mi SE 11.5 mph 17.3 mph N/A   Unknown
12:55 AM 73.4 °F 73.4 °F 100% 29.75 in 10.0 mi SE 13.8 mph - N/A   Unknown
1:15 AM 73.4 °F 73.4 °F 100% 29.75 in 10.0 mi SSE 12.7 mph - N/A   Unknown
1:35 AM 73.4 °F 73.4 °F 100% 29.73 in 10.0 mi SSE 11.5 mph 17.3 mph N/A   Unknown
1:55 AM 73.4 °F 73.4 °F 100% 29.72 in 10.0 mi SSE 15.0 mph - N/A   Unknown
2:15 AM 73.4 °F 73.4 °F 100% 29.72 in 10.0 mi SSE 16.1 mph 24.2 mph N/A   Unknown
2:35 AM 73.4 °F 73.4 °F 100% 29.72 in 10.0 mi SSE 15.0 mph - N/A   Unknown
2:55 AM 73.4 °F 73.4 °F 100% 29.71 in 10.0 mi SSE 19.6 mph - N/A   Unknown
3:15 AM 73.4 °F 73.4 °F 100% 29.71 in 10.0 mi SSE 18.4 mph 24.2 mph N/A   Unknown
3:35 AM 73.4 °F 73.4 °F 100% 29.70 in 10.0 mi SSE 18.4 mph 25.3 mph N/A   Unknown
3:55 AM 73.4 °F 73.4 °F 100% 29.69 in 10.0 mi SSE 20.7 mph 26.5 mph N/A   Unknown
4:15 AM 73.4 °F 73.4 °F 100% 29.69 in 10.0 mi SSE 25.3 mph 33.4 mph N/A   Unknown
4:55 AM 73.4 °F 73.4 °F 100% 29.69 in 10.0 mi South 20.7 mph 27.6 mph N/A   Unknown
5:15 AM 73.4 °F 73.4 °F 100% 29.68 in 10.0 mi South 21.9 mph 28.8 mph N/A   Unknown
5:35 AM 73.4 °F 73.4 °F 100% 29.70 in 10.0 mi South 17.3 mph 26.5 mph N/A   Unknown
5:55 AM 73.4 °F 73.4 °F 100% 29.72 in 10.0 mi South 19.6 mph 27.6 mph N/A   Unknown
6:15 AM 73.4 °F 73.4 °F 100% 29.75 in 10.0 mi South 15.0 mph 20.7 mph N/A   Unknown
6:35 AM 73.4 °F 73.4 °F 100% 29.74 in 10.0 mi South 16.1 mph 21.9 mph N/A   Unknown
6:55 AM 64.4 °F 64.4 °F 100% 29.82 in 1.2 mi WSW 15.0 mph 32.2 mph 0.10 in   Mist
7:35 AM 64.4 °F 64.4 °F 100% 29.77 in 2.5 mi SE 4.6 mph - N/A   Mist
7:55 AM 64.4 °F 64.4 °F 100% 29.78 in 10.0 mi SSE 8.1 mph - 0.33 in   Unknown
8:15 AM 64.4 °F 64.4 °F 100% 29.79 in 7.0 mi SE 10.4 mph - N/A   Unknown
8:35 AM 64.4 °F 64.4 °F 100% 29.79 in 8.0 mi SE 6.9 mph - N/A   Unknown
9:15 AM 64.4 °F 64.4 °F 100% 29.78 in 9.0 mi ESE 8.1 mph - N/A   Unknown
9:35 AM 64.4 °F 64.4 °F 100% 29.78 in 7.0 mi ESE 13.8 mph - N/A   Unknown
9:55 AM 64.4 °F 64.4 °F 100% 29.78 in 8.0 mi SE 10.4 mph 18.4 mph 0.03 in   Unknown
10:35 AM 64.4 °F 64.4 °F 100% 29.83 in 6.0 mi SSE 12.7 mph - N/A   Mist
10:55 AM 64.4 °F 64.4 °F 100% 29.82 in 4.0 mi SSE 12.7 mph - 0.02 in   Mist
11:15 AM 62.6 °F 62.6 °F 100% 29.82 in 3.0 mi SSE 11.5 mph - N/A   Mist
11:35 AM 62.6 °F 62.6 °F 100% 29.79 in 2.5 mi SE 15.0 mph - N/A   Mist
11:55 AM 62.6 °F 62.6 °F 100% 29.82 in 7.0 mi SSE 16.1 mph 25.3 mph 0.10 in   Unknown
12:15 PM 62.6 °F 62.6 °F 100% 29.82 in 8.0 mi South 13.8 mph 20.7 mph N/A   Unknown
12:55 PM 64.4 °F 64.4 °F 100% 29.84 in 10.0 mi SSW 9.2 mph - N/A   Unknown
1:15 PM 64.4 °F 64.4 °F 100% 29.83 in 10.0 mi South 10.4 mph - N/A   Unknown
1:35 PM 64.4 °F 64.4 °F 100% 29.82 in 10.0 mi South 12.7 mph - N/A   Unknown
1:55 PM 64.4 °F 64.4 °F 100% 29.81 in 10.0 mi South 11.5 mph - N/A   Unknown
2:15 PM 64.4 °F 64.4 °F 100% 29.82 in 10.0 mi South 11.5 mph - N/A   Unknown
2:35 PM 64.4 °F 64.4 °F 100% 29.82 in 10.0 mi South 10.4 mph - N/A   Unknown
2:55 PM 64.4 °F 64.4 °F 100% 29.82 in 4.0 mi South 8.1 mph 15.0 mph N/A   Mist
3:15 PM 64.4 °F 64.4 °F 100% 29.82 in 10.0 mi SSW 11.5 mph - N/A   Unknown
3:35 PM 66.2 °F 66.2 °F 100% 29.82 in 10.0 mi South 10.4 mph - N/A   Unknown
4:15 PM 66.2 °F 66.2 °F 100% 29.81 in 10.0 mi South 10.4 mph - N/A   Unknown
4:55 PM 66.2 °F 66.2 °F 100% 29.82 in 10.0 mi South 6.9 mph - N/A   Unknown
5:15 PM 66.2 °F 66.2 °F 100% 29.82 in 10.0 mi South 8.1 mph - N/A   Unknown
5:35 PM 66.2 °F 66.2 °F 100% 29.82 in 10.0 mi SSW 10.4 mph - N/A   Unknown
5:55 PM 66.2 °F 66.2 °F 100% 29.82 in 10.0 mi SSW 9.2 mph - N/A   Unknown
6:35 PM 66.2 °F 66.2 °F 100% 29.83 in 10.0 mi South 5.8 mph - N/A   Unknown
6:55 PM 64.4 °F 64.4 °F 100% 29.83 in 10.0 mi South 5.8 mph - N/A   Unknown
7:15 PM 64.4 °F 64.4 °F 100% 29.84 in 10.0 mi Calm Calm - N/A   Unknown
7:35 PM 62.6 °F 62.6 °F 100% 29.85 in 10.0 mi Calm Calm - N/A   Unknown
7:55 PM 62.6 °F 62.6 °F 100% 29.86 in 10.0 mi Calm Calm - N/A   Unknown
8:15 PM 62.6 °F 62.6 °F 100% 29.89 in 10.0 mi South 6.9 mph - N/A   Unknown
8:35 PM 62.6 °F 62.6 °F 100% 29.90 in - South 5.8 mph - N/A   Unknown
8:55 PM 62.6 °F 62.6 °F 100% 29.90 in 10.0 mi SSW 4.6 mph - N/A   Unknown
9:15 PM 60.8 °F 60.8 °F 100% 29.91 in 10.0 mi SSW 4.6 mph - N/A   Unknown
9:35 PM 60.8 °F 60.8 °F 100% 29.92 in 10.0 mi South 4.6 mph - N/A   Unknown
9:55 PM 60.8 °F 60.8 °F 100% 29.93 in 10.0 mi SSW 4.6 mph - N/A   Unknown
10:15 PM 60.8 °F 60.8 °F 100% 29.93 in 10.0 mi WSW 5.8 mph - N/A   Unknown
10:35 PM 59.0 °F 59.0 °F 100% 29.94 in 10.0 mi SW 5.8 mph - N/A   Unknown
10:55 PM 59.0 °F 59.0 °F 100% 29.95 in 10.0 mi WSW 4.6 mph - N/A   Unknown
11:15 PM 57.2 °F 57.2 °F 100% 29.95 in 10.0 mi West 4.6 mph - N/A   Unknown
11:35 PM 57.2 °F 57.2 °F 100% 29.96 in 10.0 mi West 5.8 mph - N/A   Unknown
11:55 PM 57.2 °F 55.4 °F 94% 29.95 in 10.0 mi West 4.6 mph - N/A   Unknown